Paradise.calm — WDJ3280 — position and weather

sailwx.info

Track history (hours):
 
Tides and Currents Weather Stations Pressure Air Temp Water Temp Dewpoint Dewpoint Depression Visibility Wind Speed Wind Dir Waves Ship Positions

Paradise.calm

Owner: Sixty Two, LLC, Denver, CO. More information available from US FCC via Universal Licensing System and Coast Guard Vessel Documentation Center.

Last reported at 2018-Jun-09 21:35 UTC. Time now 2018-Jun-19 12:39 UTC.
Position N 33°43' W 118°17'.
Warning: this ship's position is 9 days out of date.

Length 19 m.

Type: Pleasure craft. MMSI: 367766470.

Date/timePositionNaut miles runAvg speedWind from/ knotsBaromVisibWave heightAir tempDewpointWater temp
2018-Jun-09 21:35N 33°43' W 118°17'0 0.2
2018-Jun-09 21:30N 33°43' W 118°17'0 0.1
2018-Jun-09 20:56N 33°43' W 118°17'2 4.5
2018-Jun-09 20:30N 33°42' W 118°15'3711.5
2018-Jun-09 17:17N 33°13' W 117°47'611.8
2018-Jun-09 16:45N 33°08' W 117°43'311.7
2018-Jun-09 16:30N 33°06' W 117°41'611.8
2018-Jun-09 16:00N 33°01' W 117°37'1211.8
2018-Jun-09 15:00N 32°52' W 117°28'611.7
2018-Jun-09 14:29N 32°47' W 117°24'  
Track history (hours):
 
Tides and Currents Weather Stations Pressure Air Temp Water Temp Dewpoint Dewpoint Depression Visibility Wind Speed Wind Dir Waves Ship Positions

Paradise.calm

Owner: Sixty Two, LLC, Denver, CO. More information available from US FCC via Universal Licensing System and Coast Guard Vessel Documentation Center.

Last reported at 2018-Jun-09 21:35 UTC. Time now 2018-Jun-19 12:39 UTC.
Position N 33°43' W 118°17'.
Warning: this ship's position is 9 days out of date.

Length 19 m.

Type: Pleasure craft. MMSI: 367766470.

Date/timePositionNaut miles runAvg speedWind from/ knotsBaromVisibWave heightAir tempDewpointWater temp
2018-Jun-09 21:35N 33°43' W 118°17'0 0.2
2018-Jun-09 21:30N 33°43' W 118°17'0 0.1
2018-Jun-09 20:56N 33°43' W 118°17'2 4.5
2018-Jun-09 20:30N 33°42' W 118°15'3711.5
2018-Jun-09 17:17N 33°13' W 117°47'611.8
2018-Jun-09 16:45N 33°08' W 117°43'311.7
2018-Jun-09 16:30N 33°06' W 117°41'611.8
2018-Jun-09 16:00N 33°01' W 117°37'1211.8
2018-Jun-09 15:00N 32°52' W 117°28'611.7
2018-Jun-09 14:29N 32°47' W 117°24'  

Dump ship's entire track history